HAZ3712 ZUCK-ZGGG
Flight info
| Callsign | HAZ3712 |
|---|---|
| Flight time | 1h 51m |
| Altitude | 35100 |
| Route | VILUS1Z VILUS W180 LIDMA W182 LAGEX G586 SJG B330 GYA GYA8 |
| Aircraft | A320/M-SDE3FGHIRWY/LB1 |
Departure
| Time | 2026-04-21 03:57 |
|---|---|
| Airport | Chongqing Jiangbei International Airport (ZUCK) |
Arrival
| Time | 2026-04-21 05:48 |
|---|---|
| Airport | Guangzhou Baiyun International Airport (ZGGG) |
| Time | Latitude | Longitude | Altitude | Speed | Heading |
|---|---|---|---|---|---|
| 2026-04-21 03:35 | 29.71923 | 106.65023 | 1356 ft | 0 kts | 106° |
| 2026-04-21 03:48 | 29.71928 | 106.65004 | 1354 ft | 3 kts | 106° |
| 2026-04-21 03:48 | 29.71934 | 106.64981 | 1353 ft | 3 kts | 106° |
| 2026-04-21 03:48 | 29.71942 | 106.64961 | 1353 ft | 3 kts | 147° |
| 2026-04-21 03:48 | 29.71960 | 106.64955 | 1354 ft | 3 kts | 190° |
| 2026-04-21 03:49 | 29.71980 | 106.64962 | 1353 ft | 3 kts | 197° |
| 2026-04-21 03:49 | 29.71984 | 106.64963 | 1354 ft | 0 kts | 197° |
| 2026-04-21 03:51 | 29.71977 | 106.64960 | 1356 ft | 4 kts | 196° |
| 2026-04-21 03:51 | 29.71948 | 106.64951 | 1355 ft | 4 kts | 196° |
| 2026-04-21 03:51 | 29.71898 | 106.64933 | 1354 ft | 11 kts | 201° |
| 2026-04-21 03:52 | 29.71882 | 106.64870 | 1355 ft | 8 kts | 283° |
| 2026-04-21 03:52 | 29.71895 | 106.64786 | 1355 ft | 13 kts | 261° |
| 2026-04-21 03:52 | 29.71822 | 106.64739 | 1357 ft | 12 kts | 197° |
| 2026-04-21 03:52 | 29.71746 | 106.64712 | 1358 ft | 10 kts | 195° |
| 2026-04-21 03:53 | 29.71668 | 106.64685 | 1356 ft | 16 kts | 197° |
| 2026-04-21 03:53 | 29.71532 | 106.64636 | 1358 ft | 23 kts | 197° |
| 2026-04-21 03:53 | 29.71373 | 106.64581 | 1360 ft | 24 kts | 196° |
| 2026-04-21 03:53 | 29.71208 | 106.64524 | 1358 ft | 25 kts | 196° |
| 2026-04-21 03:54 | 29.71036 | 106.64466 | 1357 ft | 26 kts | 197° |
| 2026-04-21 03:54 | 29.70860 | 106.64406 | 1358 ft | 27 kts | 197° |
| 2026-04-21 03:54 | 29.70680 | 106.64346 | 1358 ft | 27 kts | 196° |
| 2026-04-21 03:54 | 29.70514 | 106.64291 | 1359 ft | 18 kts | 195° |
| 2026-04-21 03:55 | 29.70450 | 106.64256 | 1360 ft | 5 kts | 232° |
| 2026-04-21 03:55 | 29.70443 | 106.64209 | 1358 ft | 6 kts | 274° |
| 2026-04-21 03:55 | 29.70457 | 106.64155 | 1360 ft | 12 kts | 287° |
| 2026-04-21 03:55 | 29.70504 | 106.64081 | 1360 ft | 12 kts | 356° |
| 2026-04-21 03:56 | 29.70551 | 106.64091 | 1360 ft | 0 kts | 15° |
| 2026-04-21 03:56 | 29.70552 | 106.64092 | 1360 ft | 3 kts | 15° |
| 2026-04-21 03:56 | 29.70813 | 106.64181 | 1359 ft | 76 kts | 17° |
| 2026-04-21 03:56 | 29.71525 | 106.64427 | 1357 ft | 135 kts | 17° |
| 2026-04-21 03:57 | 29.72578 | 106.64794 | 1388 ft | 176 kts | 15° |
| 2026-04-21 03:57 | 29.73712 | 106.65192 | 2137 ft | 166 kts | 15° |
| 2026-04-21 03:57 | 29.74818 | 106.65574 | 2792 ft | 166 kts | 14° |
| 2026-04-21 03:57 | 29.75948 | 106.65962 | 3283 ft | 177 kts | 15° |
| 2026-04-21 03:58 | 29.77200 | 106.66390 | 3544 ft | 199 kts | 15° |
| 2026-04-21 03:58 | 29.78603 | 106.66870 | 3812 ft | 221 kts | 16° |
| 2026-04-21 03:58 | 29.80158 | 106.67405 | 4105 ft | 246 kts | 16° |
| 2026-04-21 03:58 | 29.81881 | 106.67997 | 4580 ft | 269 kts | 16° |
| 2026-04-21 03:59 | 29.83678 | 106.68618 | 5349 ft | 277 kts | 16° |
| 2026-04-21 03:59 | 29.85538 | 106.69261 | 6266 ft | 280 kts | 15° |
| 2026-04-21 03:59 | 29.87419 | 106.69913 | 7084 ft | 285 kts | 14° |
| 2026-04-21 04:00 | 29.91315 | 106.71265 | 8582 ft | 299 kts | 14° |
| 2026-04-21 04:00 | 29.93330 | 106.71962 | 9335 ft | 306 kts | 13° |
| 2026-04-21 04:00 | 29.95394 | 106.72630 | 10055 ft | 310 kts | 5° |
| 2026-04-21 04:00 | 29.97549 | 106.72644 | 10502 ft | 317 kts | 343° |
| 2026-04-21 04:01 | 29.98974 | 106.72080 | 10653 ft | 325 kts | 327° |
| 2026-04-21 04:01 | 30.01218 | 106.69720 | 10901 ft | 342 kts | 298° |
| 2026-04-21 04:01 | 30.01873 | 106.68046 | 11005 ft | 350 kts | 282° |
| 2026-04-21 04:01 | 30.02127 | 106.65239 | 11461 ft | 356 kts | 270° |
| 2026-04-21 04:02 | 30.02193 | 106.62355 | 12054 ft | 362 kts | 270° |
| 2026-04-21 04:02 | 30.02260 | 106.59436 | 12673 ft | 366 kts | 270° |
| 2026-04-21 04:02 | 30.02328 | 106.56475 | 13288 ft | 371 kts | 270° |
| 2026-04-21 04:02 | 30.02397 | 106.53478 | 13882 ft | 376 kts | 270° |
| 2026-04-21 04:03 | 30.02469 | 106.50442 | 14424 ft | 380 kts | 270° |
| 2026-04-21 04:03 | 30.02342 | 106.47388 | 14930 ft | 383 kts | 260° |
| 2026-04-21 04:03 | 30.01602 | 106.44439 | 15437 ft | 386 kts | 246° |
| 2026-04-21 04:03 | 30.00247 | 106.41756 | 15925 ft | 390 kts | 233° |
| 2026-04-21 04:04 | 29.98342 | 106.39505 | 16398 ft | 396 kts | 220° |
| 2026-04-21 04:04 | 29.96028 | 106.37750 | 16850 ft | 401 kts | 213° |
| 2026-04-21 04:04 | 29.93623 | 106.36081 | 17319 ft | 405 kts | 213° |
| 2026-04-21 04:04 | 29.91195 | 106.34407 | 17732 ft | 410 kts | 213° |
| 2026-04-21 04:05 | 29.88727 | 106.32710 | 18109 ft | 415 kts | 213° |
| 2026-04-21 04:05 | 29.86237 | 106.30996 | 18488 ft | 419 kts | 213° |
| 2026-04-21 04:05 | 29.83640 | 106.29445 | 18884 ft | 423 kts | 205° |
| 2026-04-21 04:05 | 29.80840 | 106.28364 | 19295 ft | 427 kts | 199° |
| 2026-04-21 04:06 | 29.77989 | 106.27391 | 19727 ft | 428 kts | 199° |
| 2026-04-21 04:06 | 29.75127 | 106.26414 | 20167 ft | 430 kts | 199° |
| 2026-04-21 04:06 | 29.72255 | 106.25431 | 20597 ft | 431 kts | 199° |
| 2026-04-21 04:06 | 29.69374 | 106.24445 | 21013 ft | 433 kts | 199° |
| 2026-04-21 04:07 | 29.66475 | 106.23473 | 21405 ft | 436 kts | 197° |
| 2026-04-21 04:07 | 29.63455 | 106.22998 | 21802 ft | 443 kts | 184° |
| 2026-04-21 04:07 | 29.60368 | 106.23360 | 22183 ft | 451 kts | 170° |
| 2026-04-21 04:07 | 29.57397 | 106.24588 | 22555 ft | 460 kts | 156° |
| 2026-04-21 04:08 | 29.54760 | 106.26625 | 22888 ft | 468 kts | 141° |
| 2026-04-21 04:08 | 29.52564 | 106.29417 | 23210 ft | 475 kts | 129° |
| 2026-04-21 04:08 | 29.50597 | 106.32482 | 23519 ft | 478 kts | 129° |
| 2026-04-21 04:08 | 29.48626 | 106.35566 | 23784 ft | 481 kts | 129° |
| 2026-04-21 04:09 | 29.46643 | 106.38666 | 24051 ft | 483 kts | 129° |
| 2026-04-21 04:09 | 29.44646 | 106.41780 | 24319 ft | 486 kts | 129° |
| 2026-04-21 04:09 | 29.42635 | 106.44905 | 24584 ft | 488 kts | 129° |
| 2026-04-21 04:09 | 29.40610 | 106.48041 | 24861 ft | 491 kts | 129° |
| 2026-04-21 04:10 | 29.38574 | 106.51194 | 25147 ft | 493 kts | 129° |
| 2026-04-21 04:10 | 29.36530 | 106.54361 | 25407 ft | 495 kts | 129° |
| 2026-04-21 04:10 | 29.34477 | 106.57541 | 25636 ft | 498 kts | 129° |
| 2026-04-21 04:10 | 29.32408 | 106.60740 | 25826 ft | 502 kts | 129° |
| 2026-04-21 04:11 | 29.30321 | 106.63964 | 26055 ft | 505 kts | 129° |
| 2026-04-21 04:11 | 29.28223 | 106.67203 | 26317 ft | 508 kts | 129° |
| 2026-04-21 04:11 | 29.26111 | 106.70463 | 26579 ft | 511 kts | 129° |
| 2026-04-21 04:11 | 29.23992 | 106.73731 | 26847 ft | 512 kts | 129° |
| 2026-04-21 04:12 | 29.21866 | 106.77009 | 27088 ft | 514 kts | 129° |
| 2026-04-21 04:12 | 29.19734 | 106.80288 | 27434 ft | 513 kts | 129° |
| 2026-04-21 04:12 | 29.17602 | 106.83565 | 27747 ft | 513 kts | 129° |
| 2026-04-21 04:12 | 29.15458 | 106.86826 | 28075 ft | 512 kts | 132° |
| 2026-04-21 04:13 | 29.13014 | 106.89756 | 28380 ft | 507 kts | 143° |
| 2026-04-21 04:13 | 29.10192 | 106.92137 | 28667 ft | 501 kts | 154° |
| 2026-04-21 04:13 | 29.07092 | 106.93888 | 29010 ft | 494 kts | 164° |
| 2026-04-21 04:13 | 29.03871 | 106.94993 | 29360 ft | 486 kts | 174° |
| 2026-04-21 04:14 | 29.00552 | 106.95497 | 29676 ft | 478 kts | 185° |
| 2026-04-21 04:14 | 28.97240 | 106.95511 | 29938 ft | 476 kts | 188° |
| 2026-04-21 04:14 | 28.93887 | 106.95472 | 30254 ft | 476 kts | 188° |
| 2026-04-21 04:14 | 28.90623 | 106.95435 | 30545 ft | 475 kts | 188° |
| 2026-04-21 04:15 | 28.87317 | 106.95395 | 30743 ft | 476 kts | 189° |
| 2026-04-21 04:15 | 28.84007 | 106.95352 | 31034 ft | 475 kts | 189° |
| 2026-04-21 04:15 | 28.80703 | 106.95312 | 31330 ft | 474 kts | 189° |
| 2026-04-21 04:15 | 28.77405 | 106.95271 | 31590 ft | 474 kts | 189° |
| 2026-04-21 04:16 | 28.74108 | 106.95231 | 31866 ft | 474 kts | 190° |
| 2026-04-21 04:16 | 28.70814 | 106.95192 | 32198 ft | 473 kts | 190° |
| 2026-04-21 04:16 | 28.67524 | 106.95155 | 32560 ft | 471 kts | 191° |
| 2026-04-21 04:16 | 28.64248 | 106.95119 | 32911 ft | 470 kts | 191° |
| 2026-04-21 04:17 | 28.60982 | 106.95083 | 33236 ft | 469 kts | 191° |
| 2026-04-21 04:17 | 28.57726 | 106.95044 | 33622 ft | 467 kts | 192° |
| 2026-04-21 04:17 | 28.54479 | 106.95003 | 33933 ft | 466 kts | 192° |
| 2026-04-21 04:17 | 28.51241 | 106.94962 | 34206 ft | 465 kts | 192° |
| 2026-04-21 04:18 | 28.48008 | 106.94921 | 34504 ft | 464 kts | 192° |
| 2026-04-21 04:18 | 28.44779 | 106.94879 | 34722 ft | 464 kts | 190° |
| 2026-04-21 04:18 | 28.41558 | 106.94840 | 34950 ft | 462 kts | 190° |
| 2026-04-21 04:19 | 28.35104 | 106.94759 | 35050 ft | 466 kts | 190° |
| 2026-04-21 04:19 | 28.28613 | 106.94680 | 35044 ft | 467 kts | 190° |
| 2026-04-21 04:20 | 28.22105 | 106.94647 | 35048 ft | 469 kts | 188° |
| 2026-04-21 04:20 | 28.15554 | 106.94955 | 35036 ft | 472 kts | 185° |
| 2026-04-21 04:21 | 28.08992 | 106.95437 | 35042 ft | 472 kts | 185° |
| 2026-04-21 04:21 | 28.02441 | 106.95870 | 35046 ft | 471 kts | 186° |
| 2026-04-21 04:22 | 27.95894 | 106.96189 | 35049 ft | 471 kts | 186° |
| 2026-04-21 04:22 | 27.89349 | 106.96467 | 35050 ft | 471 kts | 186° |
| 2026-04-21 04:23 | 27.82795 | 106.96806 | 35040 ft | 472 kts | 185° |
| 2026-04-21 04:23 | 27.76238 | 106.97220 | 35046 ft | 472 kts | 185° |
| 2026-04-21 04:24 | 27.69681 | 106.97631 | 35047 ft | 472 kts | 185° |
| 2026-04-21 04:24 | 27.63128 | 106.98022 | 35051 ft | 472 kts | 185° |
| 2026-04-21 04:25 | 27.56611 | 106.98395 | 35035 ft | 472 kts | 185° |
| 2026-04-21 04:25 | 27.49951 | 106.98692 | 35055 ft | 481 kts | 186° |
| 2026-04-21 04:26 | 27.43284 | 106.98919 | 35064 ft | 484 kts | 186° |
| 2026-04-21 04:26 | 27.36542 | 106.99264 | 35063 ft | 485 kts | 185° |
| 2026-04-21 04:27 | 27.29797 | 106.99667 | 35064 ft | 485 kts | 185° |
| 2026-04-21 04:27 | 27.23053 | 107.00059 | 35058 ft | 485 kts | 185° |
| 2026-04-21 04:28 | 27.16313 | 107.00415 | 35059 ft | 485 kts | 185° |
| 2026-04-21 04:28 | 27.09571 | 107.00759 | 35060 ft | 485 kts | 185° |
| 2026-04-21 04:29 | 27.02818 | 107.01184 | 35052 ft | 491 kts | 179° |
| 2026-04-21 04:29 | 26.99471 | 107.02135 | 35039 ft | 504 kts | 164° |
| 2026-04-21 04:29 | 26.96337 | 107.03980 | 35032 ft | 516 kts | 150° |
| 2026-04-21 04:29 | 26.93628 | 107.06656 | 35030 ft | 525 kts | 134° |
| 2026-04-21 04:30 | 26.91538 | 107.10036 | 35024 ft | 532 kts | 118° |
| 2026-04-21 04:30 | 26.90209 | 107.13909 | 35029 ft | 534 kts | 106° |
| 2026-04-21 04:30 | 26.89190 | 107.17916 | 35027 ft | 535 kts | 106° |
| 2026-04-21 04:31 | 26.87154 | 107.25952 | 35032 ft | 537 kts | 106° |
| 2026-04-21 04:31 | 26.85108 | 107.33999 | 35030 ft | 538 kts | 107° |
| 2026-04-21 04:32 | 26.83056 | 107.42012 | 35035 ft | 539 kts | 106° |
| 2026-04-21 04:32 | 26.80995 | 107.50083 | 35052 ft | 539 kts | 106° |
| 2026-04-21 04:33 | 26.78946 | 107.58156 | 35060 ft | 539 kts | 106° |
| 2026-04-21 04:33 | 26.76887 | 107.66225 | 35062 ft | 539 kts | 107° |
| 2026-04-21 04:34 | 26.74792 | 107.74278 | 35065 ft | 539 kts | 107° |
| 2026-04-21 04:34 | 26.72678 | 107.82323 | 35069 ft | 539 kts | 107° |
| 2026-04-21 04:35 | 26.70578 | 107.90363 | 35061 ft | 539 kts | 107° |
| 2026-04-21 04:35 | 26.68497 | 107.98410 | 35061 ft | 538 kts | 107° |
| 2026-04-21 04:36 | 26.66396 | 108.06445 | 35059 ft | 538 kts | 107° |
| 2026-04-21 04:36 | 26.64284 | 108.14476 | 35053 ft | 538 kts | 107° |
| 2026-04-21 04:37 | 26.62167 | 108.22504 | 35048 ft | 539 kts | 107° |
| 2026-04-21 04:37 | 26.60053 | 108.30536 | 35049 ft | 539 kts | 107° |
| 2026-04-21 04:38 | 26.57945 | 108.38567 | 35047 ft | 538 kts | 106° |
| 2026-04-21 04:38 | 26.56012 | 108.46645 | 35049 ft | 538 kts | 104° |
| 2026-04-21 04:39 | 26.54208 | 108.54758 | 35052 ft | 538 kts | 103° |
| 2026-04-21 04:39 | 26.52392 | 108.62799 | 35054 ft | 538 kts | 104° |
| 2026-04-21 04:40 | 26.50500 | 108.70864 | 35047 ft | 537 kts | 105° |
| 2026-04-21 04:40 | 26.48589 | 108.78916 | 35053 ft | 536 kts | 104° |
| 2026-04-21 04:41 | 26.46693 | 108.86960 | 35054 ft | 536 kts | 104° |
| 2026-04-21 04:41 | 26.44771 | 108.94988 | 35056 ft | 535 kts | 108° |
| 2026-04-21 04:42 | 26.41515 | 109.02399 | 35059 ft | 531 kts | 128° |
| 2026-04-21 04:42 | 26.36490 | 109.08293 | 35049 ft | 521 kts | 146° |
| 2026-04-21 04:43 | 26.30760 | 109.13251 | 35038 ft | 521 kts | 146° |
| 2026-04-21 04:43 | 26.25031 | 109.18214 | 35036 ft | 522 kts | 146° |
| 2026-04-21 04:44 | 26.19298 | 109.23180 | 35038 ft | 522 kts | 146° |
| 2026-04-21 04:44 | 26.13573 | 109.28170 | 35009 ft | 523 kts | 145° |
| 2026-04-21 04:45 | 26.07930 | 109.33286 | 35015 ft | 524 kts | 144° |
| 2026-04-21 04:45 | 26.02314 | 109.38450 | 35022 ft | 524 kts | 144° |
| 2026-04-21 04:46 | 25.96672 | 109.43575 | 35012 ft | 524 kts | 144° |
| 2026-04-21 04:46 | 25.91047 | 109.48632 | 35017 ft | 524 kts | 144° |
| 2026-04-21 04:47 | 25.85386 | 109.53714 | 35003 ft | 523 kts | 144° |
| 2026-04-21 04:47 | 25.79728 | 109.58809 | 34987 ft | 524 kts | 144° |
| 2026-04-21 04:48 | 25.74170 | 109.64055 | 34998 ft | 526 kts | 140° |
| 2026-04-21 04:48 | 25.68914 | 109.69707 | 35002 ft | 527 kts | 137° |
| 2026-04-21 04:49 | 25.64624 | 109.74502 | 35001 ft | 527 kts | 137° |
| 2026-04-21 04:49 | 25.59406 | 109.80179 | 35001 ft | 526 kts | 139° |
| 2026-04-21 04:50 | 25.53207 | 109.86701 | 35011 ft | 525 kts | 139° |
| 2026-04-21 04:50 | 25.48796 | 109.91321 | 35007 ft | 525 kts | 139° |
| 2026-04-21 04:51 | 25.43510 | 109.96896 | 35002 ft | 525 kts | 139° |
| 2026-04-21 04:51 | 25.38237 | 110.02488 | 35005 ft | 525 kts | 139° |
| 2026-04-21 04:52 | 25.32961 | 110.08074 | 35023 ft | 525 kts | 139° |
| 2026-04-21 04:52 | 25.27674 | 110.13648 | 35006 ft | 525 kts | 139° |
| 2026-04-21 04:53 | 25.22393 | 110.19208 | 35008 ft | 524 kts | 139° |
| 2026-04-21 04:53 | 25.17109 | 110.24761 | 35008 ft | 524 kts | 139° |
| 2026-04-21 04:54 | 25.11846 | 110.30331 | 34987 ft | 524 kts | 139° |
| 2026-04-21 04:54 | 25.06600 | 110.35896 | 35009 ft | 523 kts | 138° |
| 2026-04-21 04:55 | 25.01348 | 110.41447 | 35014 ft | 522 kts | 139° |
| 2026-04-21 04:55 | 24.96103 | 110.46987 | 35006 ft | 522 kts | 139° |
| 2026-04-21 04:56 | 24.90866 | 110.52519 | 35007 ft | 522 kts | 139° |
| 2026-04-21 04:56 | 24.85628 | 110.58048 | 34997 ft | 521 kts | 139° |
| 2026-04-21 04:57 | 24.80385 | 110.63560 | 35003 ft | 521 kts | 139° |
| 2026-04-21 04:57 | 24.75143 | 110.69073 | 34983 ft | 521 kts | 138° |
| 2026-04-21 04:58 | 24.69912 | 110.74583 | 34990 ft | 521 kts | 138° |
| 2026-04-21 04:58 | 24.64679 | 110.80088 | 34997 ft | 521 kts | 138° |
| 2026-04-21 04:59 | 24.59500 | 110.85657 | 34995 ft | 521 kts | 137° |
| 2026-04-21 04:59 | 24.54352 | 110.91253 | 34998 ft | 520 kts | 137° |
| 2026-04-21 05:00 | 24.49200 | 110.96831 | 35003 ft | 520 kts | 137° |
| 2026-04-21 05:00 | 24.41475 | 111.05118 | 34976 ft | 520 kts | 138° |
| 2026-04-21 05:01 | 24.36300 | 111.10655 | 34985 ft | 520 kts | 138° |
| 2026-04-21 05:01 | 24.31122 | 111.16189 | 34989 ft | 520 kts | 138° |
| 2026-04-21 05:02 | 24.25917 | 111.21757 | 34984 ft | 520 kts | 138° |
| 2026-04-21 05:02 | 24.20580 | 111.26988 | 34996 ft | 516 kts | 148° |
| 2026-04-21 05:03 | 24.14311 | 111.30794 | 35000 ft | 512 kts | 157° |
| 2026-04-21 05:03 | 24.07993 | 111.34303 | 35002 ft | 513 kts | 156° |
| 2026-04-21 05:04 | 24.01667 | 111.37843 | 34986 ft | 510 kts | 156° |
| 2026-04-21 05:04 | 23.95349 | 111.41373 | 34985 ft | 510 kts | 156° |
| 2026-04-21 05:05 | 23.89024 | 111.44895 | 34986 ft | 510 kts | 156° |
| 2026-04-21 05:05 | 23.82696 | 111.48411 | 34985 ft | 510 kts | 156° |
| 2026-04-21 05:06 | 23.76364 | 111.51934 | 34986 ft | 511 kts | 156° |
| 2026-04-21 05:06 | 23.70036 | 111.55450 | 34988 ft | 511 kts | 156° |
| 2026-04-21 05:07 | 23.63704 | 111.58968 | 34990 ft | 511 kts | 156° |
| 2026-04-21 05:07 | 23.57368 | 111.62477 | 34991 ft | 511 kts | 156° |
| 2026-04-21 05:08 | 23.51033 | 111.65976 | 34990 ft | 510 kts | 156° |
| 2026-04-21 05:08 | 23.44695 | 111.69473 | 34985 ft | 510 kts | 156° |
| 2026-04-21 05:09 | 23.38363 | 111.72982 | 34694 ft | 512 kts | 156° |
| 2026-04-21 05:09 | 23.35202 | 111.74738 | 34114 ft | 508 kts | 156° |
| 2026-04-21 05:09 | 23.32062 | 111.76477 | 33506 ft | 504 kts | 156° |
| 2026-04-21 05:10 | 23.28951 | 111.78207 | 32875 ft | 501 kts | 154° |
| 2026-04-21 05:10 | 23.26031 | 111.80273 | 32258 ft | 502 kts | 144° |
| 2026-04-21 05:10 | 23.23472 | 111.82862 | 31648 ft | 505 kts | 134° |
| 2026-04-21 05:10 | 23.21354 | 111.85918 | 31056 ft | 508 kts | 123° |
| 2026-04-21 05:11 | 23.19746 | 111.89346 | 30479 ft | 511 kts | 113° |
| 2026-04-21 05:11 | 23.18701 | 111.93031 | 29904 ft | 509 kts | 103° |
| 2026-04-21 05:11 | 23.17942 | 111.96764 | 29241 ft | 503 kts | 103° |
| 2026-04-21 05:11 | 23.17188 | 112.00452 | 28693 ft | 496 kts | 103° |
| 2026-04-21 05:12 | 23.16440 | 112.04084 | 28188 ft | 490 kts | 103° |
| 2026-04-21 05:12 | 23.15693 | 112.07680 | 27685 ft | 485 kts | 103° |
| 2026-04-21 05:12 | 23.14950 | 112.11237 | 27193 ft | 481 kts | 103° |
| 2026-04-21 05:12 | 23.14213 | 112.14768 | 26704 ft | 477 kts | 103° |
| 2026-04-21 05:13 | 23.13484 | 112.18269 | 26227 ft | 473 kts | 103° |
| 2026-04-21 05:13 | 23.12764 | 112.21737 | 25757 ft | 469 kts | 103° |
| 2026-04-21 05:13 | 23.12047 | 112.25178 | 25296 ft | 465 kts | 103° |
| 2026-04-21 05:13 | 23.11333 | 112.28591 | 24839 ft | 462 kts | 103° |
| 2026-04-21 05:14 | 23.10627 | 112.31980 | 24394 ft | 458 kts | 102° |
| 2026-04-21 05:14 | 23.09928 | 112.35340 | 23956 ft | 455 kts | 102° |
| 2026-04-21 05:14 | 23.09231 | 112.38677 | 23523 ft | 451 kts | 102° |
| 2026-04-21 05:14 | 23.08536 | 112.41988 | 23019 ft | 448 kts | 102° |
| 2026-04-21 05:15 | 23.07849 | 112.45273 | 22513 ft | 444 kts | 103° |
| 2026-04-21 05:15 | 23.07271 | 112.48544 | 22001 ft | 439 kts | 96° |
| 2026-04-21 05:15 | 23.07138 | 112.51788 | 21514 ft | 434 kts | 90° |
| 2026-04-21 05:15 | 23.07122 | 112.55092 | 21022 ft | 429 kts | 90° |
| 2026-04-21 05:16 | 23.07105 | 112.58277 | 20548 ft | 426 kts | 90° |
| 2026-04-21 05:16 | 23.07083 | 112.61478 | 20076 ft | 423 kts | 90° |
| 2026-04-21 05:16 | 23.07058 | 112.64655 | 19612 ft | 419 kts | 91° |
| 2026-04-21 05:16 | 23.07028 | 112.67804 | 19156 ft | 416 kts | 91° |
| 2026-04-21 05:17 | 23.06998 | 112.70933 | 18706 ft | 413 kts | 91° |
| 2026-04-21 05:17 | 23.06970 | 112.74041 | 18264 ft | 410 kts | 91° |
| 2026-04-21 05:17 | 23.06946 | 112.77129 | 17768 ft | 408 kts | 91° |
| 2026-04-21 05:17 | 23.06925 | 112.80201 | 17258 ft | 406 kts | 91° |
| 2026-04-21 05:18 | 23.06903 | 112.83257 | 16757 ft | 404 kts | 91° |
| 2026-04-21 05:18 | 23.06879 | 112.86298 | 16268 ft | 402 kts | 92° |
| 2026-04-21 05:18 | 23.06855 | 112.89321 | 15784 ft | 400 kts | 92° |
| 2026-04-21 05:18 | 23.06829 | 112.92333 | 15309 ft | 398 kts | 92° |
| 2026-04-21 05:19 | 23.06800 | 112.95338 | 14836 ft | 397 kts | 92° |
| 2026-04-21 05:19 | 23.06771 | 112.98328 | 14370 ft | 395 kts | 92° |
| 2026-04-21 05:19 | 23.06743 | 113.01304 | 13919 ft | 393 kts | 93° |
| 2026-04-21 05:19 | 23.06742 | 113.04263 | 13440 ft | 391 kts | 89° |
| 2026-04-21 05:20 | 23.07295 | 113.07148 | 12930 ft | 391 kts | 69° |
| 2026-04-21 05:20 | 23.08636 | 113.09698 | 12432 ft | 388 kts | 50° |
| 2026-04-21 05:20 | 23.10609 | 113.11657 | 11939 ft | 382 kts | 31° |
| 2026-04-21 05:20 | 23.12979 | 113.12862 | 11451 ft | 374 kts | 13° |
| 2026-04-21 05:21 | 23.15504 | 113.13438 | 10974 ft | 369 kts | 7° |
| 2026-04-21 05:21 | 23.18016 | 113.13959 | 10504 ft | 366 kts | 7° |
| 2026-04-21 05:21 | 23.20508 | 113.14483 | 10053 ft | 364 kts | 8° |
| 2026-04-21 05:21 | 23.22983 | 113.15005 | 9696 ft | 358 kts | 8° |
| 2026-04-21 05:22 | 23.25391 | 113.15516 | 9508 ft | 347 kts | 7° |
| 2026-04-21 05:22 | 23.27723 | 113.16013 | 9323 ft | 337 kts | 7° |
| 2026-04-21 05:22 | 23.29987 | 113.16495 | 9150 ft | 327 kts | 7° |
| 2026-04-21 05:22 | 23.32190 | 113.16963 | 8961 ft | 318 kts | 7° |
| 2026-04-21 05:23 | 23.34326 | 113.17416 | 8794 ft | 309 kts | 7° |
| 2026-04-21 05:23 | 23.36405 | 113.17857 | 8626 ft | 300 kts | 7° |
| 2026-04-21 05:23 | 23.38426 | 113.18287 | 8450 ft | 292 kts | 7° |
| 2026-04-21 05:23 | 23.40392 | 113.18703 | 8278 ft | 284 kts | 7° |
| 2026-04-21 05:24 | 23.42305 | 113.19107 | 8111 ft | 276 kts | 8° |
| 2026-04-21 05:24 | 23.44163 | 113.19501 | 7937 ft | 268 kts | 8° |
| 2026-04-21 05:24 | 23.45968 | 113.19880 | 7768 ft | 261 kts | 8° |
| 2026-04-21 05:24 | 23.47734 | 113.20251 | 7606 ft | 257 kts | 8° |
| 2026-04-21 05:25 | 23.49481 | 113.20619 | 7432 ft | 255 kts | 8° |
| 2026-04-21 05:25 | 23.51220 | 113.20985 | 7255 ft | 254 kts | 8° |
| 2026-04-21 05:25 | 23.52951 | 113.21350 | 7101 ft | 253 kts | 8° |
| 2026-04-21 05:25 | 23.54683 | 113.21714 | 6927 ft | 253 kts | 9° |
| 2026-04-21 05:26 | 23.56405 | 113.22075 | 6881 ft | 252 kts | 9° |
| 2026-04-21 05:26 | 23.58135 | 113.22438 | 6892 ft | 253 kts | 9° |
| 2026-04-21 05:26 | 23.59860 | 113.22802 | 6899 ft | 252 kts | 9° |
| 2026-04-21 05:26 | 23.61585 | 113.23168 | 6868 ft | 254 kts | 9° |
| 2026-04-21 05:27 | 23.63265 | 113.23689 | 6589 ft | 256 kts | 28° |
| 2026-04-21 05:27 | 23.64636 | 113.24907 | 6290 ft | 255 kts | 49° |
| 2026-04-21 05:27 | 23.65660 | 113.26452 | 5890 ft | 248 kts | 73° |
| 2026-04-21 05:27 | 23.66012 | 113.28246 | 5505 ft | 239 kts | 88° |
| 2026-04-21 05:28 | 23.66168 | 113.30036 | 5114 ft | 235 kts | 90° |
| 2026-04-21 05:28 | 23.66286 | 113.31798 | 4732 ft | 230 kts | 95° |
| 2026-04-21 05:28 | 23.66070 | 113.33432 | 4609 ft | 206 kts | 114° |
| 2026-04-21 05:28 | 23.65492 | 113.34781 | 4607 ft | 190 kts | 129° |
| 2026-04-21 05:29 | 23.64657 | 113.35855 | 4531 ft | 183 kts | 143° |
| 2026-04-21 05:29 | 23.63622 | 113.36640 | 4420 ft | 181 kts | 157° |
| 2026-04-21 05:29 | 23.62450 | 113.37107 | 4262 ft | 179 kts | 170° |
| 2026-04-21 05:29 | 23.61218 | 113.37229 | 4074 ft | 178 kts | 184° |
| 2026-04-21 05:30 | 23.60009 | 113.37008 | 3863 ft | 176 kts | 194° |
| 2026-04-21 05:30 | 23.58832 | 113.36688 | 3659 ft | 173 kts | 193° |
| 2026-04-21 05:30 | 23.57674 | 113.36376 | 3427 ft | 171 kts | 193° |
| 2026-04-21 05:30 | 23.56523 | 113.36065 | 3215 ft | 171 kts | 193° |
| 2026-04-21 05:31 | 23.55373 | 113.35753 | 2994 ft | 169 kts | 193° |
| 2026-04-21 05:31 | 23.54242 | 113.35447 | 2772 ft | 166 kts | 193° |
| 2026-04-21 05:31 | 23.53139 | 113.35150 | 2544 ft | 160 kts | 194° |
| 2026-04-21 05:31 | 23.52048 | 113.34853 | 2363 ft | 162 kts | 193° |
| 2026-04-21 05:32 | 23.50960 | 113.34559 | 2158 ft | 162 kts | 192° |
| 2026-04-21 05:32 | 23.49878 | 113.34266 | 1947 ft | 160 kts | 193° |
| 2026-04-21 05:32 | 23.48783 | 113.33970 | 1741 ft | 160 kts | 192° |
| 2026-04-21 05:32 | 23.47750 | 113.33689 | 1555 ft | 145 kts | 191° |
| 2026-04-21 05:33 | 23.46798 | 113.33431 | 1364 ft | 138 kts | 191° |
| 2026-04-21 05:33 | 23.45879 | 113.33183 | 1184 ft | 135 kts | 192° |
| 2026-04-21 05:33 | 23.44948 | 113.32933 | 1008 ft | 142 kts | 192° |
| 2026-04-21 05:33 | 23.44331 | 113.32765 | 898 ft | 135 kts | 193° |
| 2026-04-21 05:34 | 23.43412 | 113.32517 | 726 ft | 136 kts | 192° |
| 2026-04-21 05:34 | 23.42505 | 113.32269 | 550 ft | 134 kts | 194° |
| 2026-04-21 05:34 | 23.41592 | 113.32022 | 337 ft | 136 kts | 191° |
| 2026-04-21 05:34 | 23.40673 | 113.31777 | 193 ft | 135 kts | 194° |
| 2026-04-21 05:35 | 23.39779 | 113.31532 | 67 ft | 123 kts | 192° |
| 2026-04-21 05:35 | 23.38861 | 113.31302 | 352 ft | 151 kts | 194° |
| 2026-04-21 05:35 | 23.37780 | 113.31029 | 899 ft | 164 kts | 191° |
| 2026-04-21 05:35 | 23.36686 | 113.30720 | 1448 ft | 164 kts | 194° |
| 2026-04-21 05:36 | 23.35570 | 113.30366 | 1963 ft | 175 kts | 194° |
| 2026-04-21 05:36 | 23.34338 | 113.29959 | 2322 ft | 193 kts | 195° |
| 2026-04-21 05:36 | 23.33014 | 113.29516 | 2876 ft | 200 kts | 195° |
| 2026-04-21 05:36 | 23.31698 | 113.29073 | 3608 ft | 198 kts | 196° |
| 2026-04-21 05:37 | 23.30345 | 113.28851 | 4250 ft | 200 kts | 173° |
| 2026-04-21 05:37 | 23.29087 | 113.29517 | 4898 ft | 210 kts | 140° |
| 2026-04-21 05:37 | 23.28353 | 113.30923 | 5527 ft | 221 kts | 111° |
| 2026-04-21 05:37 | 23.27977 | 113.32571 | 5842 ft | 226 kts | 107° |
| 2026-04-21 05:38 | 23.27661 | 113.34246 | 5898 ft | 226 kts | 106° |
| 2026-04-21 05:38 | 23.27354 | 113.35921 | 5845 ft | 225 kts | 106° |
| 2026-04-21 05:38 | 23.27068 | 113.37547 | 5698 ft | 214 kts | 104° |
| 2026-04-21 05:38 | 23.27238 | 113.39156 | 5564 ft | 221 kts | 69° |
| 2026-04-21 05:39 | 23.28222 | 113.40393 | 5416 ft | 219 kts | 32° |
| 2026-04-21 05:39 | 23.29624 | 113.41030 | 5254 ft | 219 kts | 19° |
| 2026-04-21 05:39 | 23.31091 | 113.41518 | 5130 ft | 221 kts | 16° |
| 2026-04-21 05:39 | 23.32554 | 113.41991 | 4983 ft | 218 kts | 16° |
| 2026-04-21 05:40 | 23.34002 | 113.42466 | 4840 ft | 217 kts | 17° |
| 2026-04-21 05:40 | 23.35453 | 113.42934 | 4689 ft | 218 kts | 18° |
| 2026-04-21 05:40 | 23.36913 | 113.43387 | 4537 ft | 218 kts | 17° |
| 2026-04-21 05:40 | 23.38369 | 113.43827 | 4376 ft | 217 kts | 16° |
| 2026-04-21 05:41 | 23.39823 | 113.44265 | 4200 ft | 216 kts | 16° |
| 2026-04-21 05:41 | 23.41272 | 113.44700 | 4010 ft | 216 kts | 16° |
| 2026-04-21 05:41 | 23.42715 | 113.45129 | 3810 ft | 215 kts | 16° |
| 2026-04-21 05:41 | 23.44156 | 113.45556 | 3614 ft | 214 kts | 16° |
| 2026-04-21 05:42 | 23.45580 | 113.45982 | 3399 ft | 210 kts | 16° |
| 2026-04-21 05:42 | 23.46983 | 113.46403 | 3157 ft | 208 kts | 16° |
| 2026-04-21 05:42 | 23.48403 | 113.46492 | 2918 ft | 205 kts | 345° |
| 2026-04-21 05:42 | 23.49700 | 113.45916 | 2674 ft | 200 kts | 317° |
| 2026-04-21 05:43 | 23.50490 | 113.44734 | 2430 ft | 191 kts | 287° |
| 2026-04-21 05:43 | 23.50864 | 113.43371 | 2188 ft | 186 kts | 271° |
| 2026-04-21 05:43 | 23.50974 | 113.41988 | 2019 ft | 184 kts | 267° |
| 2026-04-21 05:43 | 23.51024 | 113.40629 | 1974 ft | 176 kts | 266° |
| 2026-04-21 05:44 | 23.51062 | 113.39283 | 1988 ft | 174 kts | 266° |
| 2026-04-21 05:44 | 23.51093 | 113.37996 | 1989 ft | 170 kts | 264° |
| 2026-04-21 05:44 | 23.50885 | 113.36768 | 1972 ft | 162 kts | 245° |
| 2026-04-21 05:44 | 23.50424 | 113.35652 | 1976 ft | 161 kts | 237° |
| 2026-04-21 05:45 | 23.49771 | 113.34653 | 1898 ft | 164 kts | 219° |
| 2026-04-21 05:45 | 23.48865 | 113.34020 | 1715 ft | 145 kts | 199° |
| 2026-04-21 05:45 | 23.47929 | 113.33741 | 1538 ft | 137 kts | 192° |
| 2026-04-21 05:45 | 23.47016 | 113.33493 | 1372 ft | 134 kts | 191° |
| 2026-04-21 05:46 | 23.46105 | 113.33246 | 1202 ft | 135 kts | 192° |
| 2026-04-21 05:46 | 23.45199 | 113.33000 | 1035 ft | 133 kts | 191° |
| 2026-04-21 05:46 | 23.44264 | 113.32748 | 870 ft | 139 kts | 192° |
| 2026-04-21 05:46 | 23.43348 | 113.32500 | 704 ft | 134 kts | 193° |
| 2026-04-21 05:47 | 23.42440 | 113.32262 | 513 ft | 134 kts | 194° |
| 2026-04-21 05:47 | 23.41540 | 113.32010 | 322 ft | 134 kts | 194° |
| 2026-04-21 05:47 | 23.40617 | 113.31761 | 179 ft | 138 kts | 193° |
| 2026-04-21 05:47 | 23.39708 | 113.31514 | 65 ft | 126 kts | 193° |
| 2026-04-21 05:48 | 23.38934 | 113.31307 | 52 ft | 101 kts | 195° |
| 2026-04-21 05:48 | 23.38416 | 113.31164 | 56 ft | 51 kts | 194° |
| 2026-04-21 05:48 | 23.38224 | 113.31077 | 58 ft | 27 kts | 216° |
| 2026-04-21 05:48 | 23.38107 | 113.30961 | 54 ft | 17 kts | 223° |
| 2026-04-21 05:49 | 23.38022 | 113.30878 | 50 ft | 16 kts | 231° |
| 2026-04-21 05:49 | 23.38016 | 113.30780 | 52 ft | 13 kts | 282° |
| 2026-04-21 05:49 | 23.38036 | 113.30686 | 57 ft | 13 kts | 284° |
| 2026-04-21 05:49 | 23.38056 | 113.30602 | 58 ft | 10 kts | 286° |
| 2026-04-21 05:50 | 23.38073 | 113.30535 | 52 ft | 8 kts | 283° |
| 2026-04-21 05:50 | 23.38084 | 113.30478 | 58 ft | 7 kts | 284° |
| 2026-04-21 05:50 | 23.38095 | 113.30430 | 58 ft | 6 kts | 284° |
| 2026-04-21 05:50 | 23.38107 | 113.30377 | 56 ft | 7 kts | 283° |
| 2026-04-21 05:51 | 23.38116 | 113.30331 | 53 ft | 6 kts | 282° |
| 2026-04-21 05:51 | 23.38130 | 113.30275 | 54 ft | 11 kts | 283° |
| 2026-04-21 05:51 | 23.38148 | 113.30197 | 55 ft | 10 kts | 284° |
| 2026-04-21 05:51 | 23.38163 | 113.30130 | 52 ft | 9 kts | 283° |
| 2026-04-21 05:52 | 23.38178 | 113.30071 | 54 ft | 7 kts | 292° |
| 2026-04-21 05:52 | 23.38209 | 113.30034 | 53 ft | 6 kts | 322° |
| 2026-04-21 05:52 | 23.38241 | 113.30006 | 55 ft | 6 kts | 321° |
| 2026-04-21 05:52 | 23.38271 | 113.29988 | 53 ft | 4 kts | 350° |
| 2026-04-21 05:53 | 23.38296 | 113.29997 | 58 ft | 3 kts | 29° |
| 2026-04-21 05:53 | 23.38308 | 113.30011 | 58 ft | 2 kts | 51° |
| 2026-04-21 05:53 | 23.38321 | 113.30030 | 52 ft | 4 kts | 50° |
| 2026-04-21 05:53 | 23.38336 | 113.30050 | 55 ft | 3 kts | 52° |
| 2026-04-21 05:54 | 23.38341 | 113.30056 | 50 ft | 0 kts | 52° |